createdAt,value
2022-11-13T00:02:21.216Z,22.17
2022-11-13T00:05:25.324Z,20.70
2022-11-13T00:08:27.972Z,20.60
2022-11-13T00:11:30.918Z,24.57
2022-11-13T00:14:33.617Z,22.03
2022-11-13T00:17:36.162Z,28.23
2022-11-13T00:20:40.182Z,23.63
2022-11-13T00:23:43.566Z,17.57
2022-11-13T00:26:45.962Z,20.37
2022-11-13T00:29:48.682Z,18.20
2022-11-13T00:32:51.243Z,16.73
2022-11-13T00:35:55.331Z,14.70
2022-11-13T00:38:59.013Z,13.57
2022-11-13T00:42:01.875Z,15.73
2022-11-13T00:45:04.501Z,13.87
2022-11-13T00:48:07.499Z,14.33
2022-11-13T00:51:11.559Z,15.53
2022-11-13T00:54:14.105Z,16.40
2022-11-13T00:57:16.642Z,13.80
2022-11-13T01:00:19.350Z,16.07
2022-11-13T01:03:21.723Z,12.77
2022-11-13T01:06:27.281Z,15.97
2022-11-13T01:09:29.673Z,13.60
2022-11-13T01:12:32.234Z,14.07
2022-11-13T01:15:34.686Z,14.67
2022-11-13T01:18:37.769Z,14.30
2022-11-13T01:21:41.446Z,16.03
2022-11-13T01:24:44.168Z,14.20
2022-11-13T01:27:47.222Z,13.20
2022-11-13T01:30:49.723Z,14.67
2022-11-13T01:33:52.481Z,16.27
2022-11-13T01:36:56.041Z,12.23
2022-11-13T01:39:58.391Z,14.27
2022-11-13T01:43:00.997Z,16.00
2022-11-13T01:46:20.639Z,15.33
2022-11-13T01:49:32.251Z,16.83
2022-11-13T01:52:39.221Z,14.70
2022-11-13T01:55:42.193Z,17.77
2022-11-13T01:58:47.879Z,16.03
2022-11-13T02:01:50.413Z,15.47
2022-11-13T02:04:53.006Z,16.30
2022-11-13T02:07:56.539Z,15.83
2022-11-13T02:10:59.035Z,14.70
2022-11-13T02:14:02.233Z,15.83
2022-11-13T02:17:09.304Z,16.93
2022-11-13T02:20:12.723Z,21.00
2022-11-13T02:23:26.177Z,17.83
2022-11-13T02:26:32.737Z,15.60
2022-11-13T02:29:35.164Z,16.40
2022-11-13T02:32:43.057Z,16.67
2022-11-13T02:35:45.425Z,19.23
2022-11-13T02:38:48.695Z,19.37
2022-11-13T02:41:52.494Z,25.10
2022-11-13T02:44:55.023Z,19.60
2022-11-13T02:47:57.537Z,20.77
2022-11-13T02:50:59.442Z,20.77
2022-11-13T02:54:02.051Z,24.03
2022-11-13T02:57:05.551Z,20.77
2022-11-13T03:00:13.549Z,27.43
2022-11-13T03:03:24.825Z,19.47
2022-11-13T03:06:38.987Z,27.57
2022-11-13T03:09:42.372Z,26.70
2022-11-13T03:12:45.993Z,23.13
2022-11-13T03:15:48.574Z,23.13
2022-11-13T03:18:50.934Z,31.47
2022-11-13T03:21:53.250Z,25.17
2022-11-13T03:24:55.762Z,26.40
2022-11-13T03:27:59.643Z,23.43
2022-11-13T03:31:02.777Z,27.17
2022-11-13T03:34:05.417Z,27.67
2022-11-13T03:37:07.828Z,25.90
2022-11-13T03:40:11.281Z,27.53
2022-11-13T03:43:15.019Z,25.90
2022-11-13T03:46:17.473Z,23.77
2022-11-13T03:49:19.688Z,24.10
2022-11-13T03:52:22.289Z,24.83
2022-11-13T03:55:24.815Z,24.07
2022-11-13T03:58:29.194Z,30.90
2022-11-13T04:01:32.307Z,26.57
2022-11-13T04:04:35.027Z,26.27
2022-11-13T04:07:37.275Z,21.07
2022-11-13T04:10:40.217Z,24.80
2022-11-13T04:13:44.134Z,18.17
2022-11-13T04:16:46.681Z,16.07
2022-11-13T04:19:48.582Z,20.63
2022-11-13T04:22:50.791Z,24.83
2022-11-13T04:25:52.855Z,18.63
2022-11-13T04:28:56.352Z,20.33
2022-11-13T04:31:58.687Z,18.67
2022-11-13T04:35:00.626Z,17.60
2022-11-13T04:38:02.894Z,19.93
2022-11-13T04:41:22.692Z,18.33
2022-11-13T04:44:26.313Z,18.77
2022-11-13T04:47:28.876Z,20.90
2022-11-13T04:50:30.971Z,17.60
2022-11-13T04:53:33.193Z,15.77
2022-11-13T04:56:35.314Z,14.27
2022-11-13T04:59:39.290Z,17.30
2022-11-13T05:02:41.972Z,17.13
2022-11-13T05:05:44.735Z,18.03
2022-11-13T05:08:47.695Z,20.53
2022-11-13T05:11:50.148Z,31.53
2022-11-13T05:14:54.033Z,55.40
2022-11-13T05:17:56.141Z,49.83
2022-11-13T05:20:58.569Z,35.60
2022-11-13T05:24:01.202Z,26.97
2022-11-13T05:27:03.068Z,23.70
2022-11-13T05:30:07.697Z,31.80
2022-11-13T05:33:10.250Z,20.30
2022-11-13T05:36:14.261Z,21.20
2022-11-13T05:39:16.767Z,19.97
2022-11-13T05:42:19.172Z,22.30
2022-11-13T05:45:23.234Z,21.27
2022-11-13T05:48:25.620Z,22.57
2022-11-13T05:51:29.509Z,21.03
2022-11-13T05:54:31.687Z,19.67
2022-11-13T05:57:33.577Z,22.80
2022-11-13T06:00:37.711Z,18.77
2022-11-13T06:03:40.325Z,23.50
2022-11-13T06:06:43.213Z,21.33
2022-11-13T06:09:45.673Z,21.60
2022-11-13T06:12:48.017Z,25.60
2022-11-13T06:15:52.003Z,20.97
2022-11-13T06:18:57.982Z,20.03
2022-11-13T06:22:00.372Z,22.20
2022-11-13T06:25:02.783Z,23.53
2022-11-13T06:28:05.672Z,23.13
2022-11-13T06:31:12.247Z,27.03
2022-11-13T06:34:14.734Z,24.93
2022-11-13T06:37:16.975Z,25.57
2022-11-13T06:40:19.677Z,23.80
2022-11-13T06:43:21.942Z,20.83
2022-11-13T06:46:27.769Z,20.73
2022-11-13T06:49:30.347Z,22.27
2022-11-13T06:52:32.654Z,21.77
2022-11-13T06:55:34.984Z,21.57
2022-11-13T06:58:38.166Z,21.27
2022-11-13T07:01:42.209Z,20.97
2022-11-13T07:04:44.715Z,20.37
2022-11-13T07:07:47.481Z,23.63
2022-11-13T07:10:54.784Z,26.73
2022-11-13T07:13:57.156Z,33.93
2022-11-13T07:17:10.111Z,28.17
2022-11-13T07:20:13.292Z,30.23
2022-11-13T07:23:15.804Z,25.73
2022-11-13T07:26:18.524Z,22.93
2022-11-13T07:29:20.904Z,19.80
2022-11-13T07:32:24.780Z,17.07
2022-11-13T07:35:27.189Z,30.10
2022-11-13T07:38:29.669Z,49.43
2022-11-13T07:41:32.013Z,55.13
2022-11-13T07:44:53.684Z,70.87
2022-11-13T07:48:00.678Z,48.20
2022-11-13T07:51:03.994Z,50.30
2022-11-13T07:54:06.287Z,40.77
2022-11-13T07:57:08.560Z,28.50
2022-11-13T08:00:11.911Z,28.37
2022-11-13T08:03:17.357Z,25.30
2022-11-13T08:06:19.793Z,19.07
2022-11-13T08:09:22.502Z,17.50
2022-11-13T08:12:24.688Z,19.33
2022-11-13T08:15:26.733Z,16.93
2022-11-13T08:18:31.322Z,25.87
2022-11-13T08:21:33.937Z,22.13
2022-11-13T08:24:36.389Z,18.50
2022-11-13T08:27:38.725Z,21.53
2022-11-13T08:30:41.083Z,17.27
2022-11-13T08:33:45.036Z,19.20
2022-11-13T08:36:48.995Z,21.03
2022-11-13T08:39:51.730Z,21.23
2022-11-13T08:42:54.161Z,17.70
2022-11-13T08:45:56.894Z,14.87
2022-11-13T08:49:01.043Z,15.77
2022-11-13T08:52:03.325Z,14.00
2022-11-13T08:55:06.383Z,12.90
2022-11-13T08:58:08.565Z,11.37
2022-11-13T09:01:10.978Z,11.83
2022-11-13T09:04:14.700Z,11.77
2022-11-13T09:07:17.539Z,10.67
2022-11-13T09:10:20.421Z,11.30
2022-11-13T09:13:23.050Z,18.50
2022-11-13T09:16:25.072Z,11.70
2022-11-13T09:19:29.167Z,12.07
2022-11-13T09:22:31.474Z,11.37
2022-11-13T09:25:37.902Z,11.27
2022-11-13T09:28:41.326Z,10.70
2022-11-13T09:31:43.876Z,12.00
2022-11-13T09:34:47.501Z,11.33
2022-11-13T09:37:53.147Z,9.37
2022-11-13T09:41:01.782Z,9.57
2022-11-13T09:44:07.028Z,9.90
2022-11-13T09:47:14.840Z,9.23
2022-11-13T09:50:23.540Z,10.00
2022-11-13T09:53:27.520Z,12.15
2022-11-13T09:56:34.343Z,11.40
2022-11-13T09:59:42.624Z,10.55
2022-11-13T10:02:59.744Z,13.88
2022-11-13T10:06:13.085Z,11.83
2022-11-13T10:09:27.939Z,10.17
2022-11-13T10:12:32.917Z,11.10
2022-11-13T10:15:37.944Z,11.50
2022-11-13T10:18:41.192Z,14.73
2022-11-13T10:21:52.193Z,9.07
2022-11-13T10:25:04.323Z,12.68
2022-11-13T10:28:48.260Z,12.05
2022-11-13T10:31:46.399Z,12.02
2022-11-13T10:34:54.126Z,13.50
2022-11-13T10:38:06.590Z,10.95
2022-11-13T10:41:14.068Z,8.93
2022-11-13T10:44:30.075Z,9.93
2022-11-13T10:48:02.592Z,11.88
2022-11-13T10:51:01.679Z,14.65
2022-11-13T10:54:23.465Z,8.52
2022-11-13T10:57:30.509Z,12.95
2022-11-13T11:00:35.553Z,9.85
2022-11-13T11:03:38.194Z,9.10
2022-11-13T11:07:18.366Z,7.00
2022-11-13T11:10:20.361Z,6.28
2022-11-13T11:13:24.433Z,9.03
2022-11-13T11:16:28.041Z,8.60
2022-11-13T11:19:35.753Z,6.83
2022-11-13T11:22:40.791Z,6.50
2022-11-13T11:25:50.609Z,6.53
2022-11-13T11:29:02.065Z,6.93
2022-11-13T11:32:12.417Z,6.83
2022-11-13T11:35:20.297Z,7.00
2022-11-13T11:38:28.755Z,8.63
2022-11-13T11:41:39.484Z,7.70
2022-11-13T11:44:54.094Z,7.10
2022-11-13T11:47:57.474Z,7.13
2022-11-13T11:51:08.842Z,7.83
2022-11-13T11:54:20.844Z,7.27
2022-11-13T11:57:38.154Z,7.53
2022-11-13T12:00:48.810Z,8.20
2022-11-13T12:04:16.127Z,8.90
2022-11-13T12:07:34.280Z,7.87
2022-11-13T12:10:44.236Z,10.43
2022-11-13T12:14:00.395Z,7.93
2022-11-13T12:17:17.509Z,7.87
2022-11-13T12:20:27.272Z,7.47
2022-11-13T12:23:42.935Z,8.10
2022-11-13T12:26:51.594Z,8.00
2022-11-13T12:30:08.952Z,9.40
2022-11-13T12:33:24.574Z,12.73
2022-11-13T12:36:27.234Z,15.60
2022-11-13T12:39:41.151Z,15.10
2022-11-13T12:42:48.232Z,29.87
2022-11-13T12:45:55.069Z,27.67
2022-11-13T12:48:57.535Z,25.13
2022-11-13T12:52:01.856Z,21.60
2022-11-13T12:55:06.457Z,19.67
2022-11-13T12:58:11.965Z,19.90
2022-11-13T13:01:20.092Z,18.67
2022-11-13T13:04:43.954Z,20.13
2022-11-13T13:08:05.882Z,19.63
2022-11-13T13:11:17.924Z,15.73
2022-11-13T13:14:34.726Z,15.70
2022-11-13T13:17:41.085Z,18.53
2022-11-13T13:20:47.831Z,22.50
2022-11-13T13:23:51.874Z,16.13
2022-11-13T13:26:54.198Z,22.10
2022-11-13T13:29:56.520Z,25.17
2022-11-13T13:33:14.582Z,25.53
2022-11-13T13:36:30.982Z,17.90
2022-11-13T13:39:45.016Z,16.67
2022-11-13T13:43:01.600Z,17.20
2022-11-13T13:46:14.878Z,16.80
2022-11-13T13:49:21.651Z,17.70
2022-11-13T13:52:33.140Z,21.77
2022-11-13T13:55:39.014Z,16.87
2022-11-13T13:58:42.063Z,17.70
2022-11-13T14:01:55.652Z,21.70
2022-11-13T14:04:59.983Z,18.40
2022-11-13T14:08:07.636Z,20.83
2022-11-13T14:11:21.497Z,16.30
2022-11-13T14:14:25.529Z,20.90
2022-11-13T14:17:29.239Z,18.03
2022-11-13T14:20:39.323Z,17.00
2022-11-13T14:23:45.969Z,19.10
2022-11-13T14:26:49.298Z,21.53
2022-11-13T14:29:55.005Z,23.13
2022-11-13T14:32:59.092Z,16.30
2022-11-13T14:36:03.923Z,18.60
2022-11-13T14:39:06.539Z,22.87
2022-11-13T14:42:17.719Z,30.10
2022-11-13T14:45:22.409Z,42.90
2022-11-13T14:48:27.186Z,26.33
2022-11-13T14:51:33.979Z,18.43
2022-11-13T14:55:08.106Z,17.27
2022-11-13T14:58:00.520Z,20.17
2022-11-13T15:01:16.470Z,17.37
2022-11-13T15:04:19.167Z,19.63
2022-11-13T15:07:29.975Z,21.97
2022-11-13T15:10:33.392Z,27.43
2022-11-13T15:13:35.968Z,22.93
2022-11-13T15:16:38.149Z,33.10
2022-11-13T15:19:40.582Z,50.30
2022-11-13T15:22:44.604Z,33.67
2022-11-13T15:25:47.007Z,21.17
2022-11-13T15:28:49.284Z,26.03
2022-11-13T15:31:51.925Z,77.40
2022-11-13T15:34:54.806Z,47.90
2022-11-13T15:37:58.731Z,41.43
2022-11-13T15:41:01.309Z,49.27
2022-11-13T15:44:08.461Z,26.70
2022-11-13T15:47:26.892Z,28.70
2022-11-13T15:50:28.983Z,25.13
2022-11-13T15:53:32.548Z,25.90
2022-11-13T15:56:35.202Z,23.27
2022-11-13T15:59:37.895Z,25.00
2022-11-13T16:02:40.100Z,21.80
2022-11-13T16:05:42.245Z,20.63
2022-11-13T16:08:46.525Z,24.57
2022-11-13T16:11:48.667Z,27.37
2022-11-13T16:14:50.566Z,26.27
2022-11-13T16:17:56.681Z,31.77
2022-11-13T16:20:59.387Z,28.10
2022-11-13T16:24:02.926Z,32.47
2022-11-13T16:27:05.681Z,34.03
2022-11-13T16:30:15.571Z,38.03
2022-11-13T16:33:18.356Z,29.77
2022-11-13T16:36:22.624Z,32.33
2022-11-13T16:39:26.468Z,34.13
2022-11-13T16:42:31.015Z,40.17
2022-11-13T16:45:33.308Z,36.80
2022-11-13T16:48:35.151Z,35.47
2022-11-13T16:51:37.349Z,27.53
2022-11-13T16:54:41.136Z,30.50
2022-11-13T16:57:43.537Z,30.30
2022-11-13T17:00:45.976Z,31.83
2022-11-13T17:03:47.987Z,33.20
2022-11-13T17:06:53.130Z,29.57
2022-11-13T17:10:29.059Z,32.10
2022-11-13T17:13:21.762Z,29.30
2022-11-13T17:16:25.244Z,29.80
2022-11-13T17:19:27.244Z,30.30
2022-11-13T17:22:29.638Z,39.33
2022-11-13T17:25:33.381Z,39.07
2022-11-13T17:28:35.785Z,34.13
2022-11-13T17:31:37.787Z,35.47
2022-11-13T17:34:40.091Z,33.30
2022-11-13T17:37:42.472Z,34.43
2022-11-13T17:40:45.930Z,28.70
2022-11-13T17:43:48.003Z,33.83
2022-11-13T17:46:50.174Z,32.37
2022-11-13T17:49:52.433Z,31.43
2022-11-13T17:52:54.586Z,35.53
2022-11-13T17:55:59.116Z,33.73
2022-11-13T17:59:01.721Z,35.13
2022-11-13T18:02:03.797Z,33.10
2022-11-13T18:05:07.169Z,28.87
2022-11-13T18:08:11.636Z,28.23
2022-11-13T18:11:17.371Z,29.77
2022-11-13T18:14:20.078Z,31.47
2022-11-13T18:17:23.787Z,31.07
2022-11-13T18:20:28.022Z,35.20
2022-11-13T18:23:30.856Z,38.13
2022-11-13T18:26:35.865Z,45.80
2022-11-13T18:29:37.955Z,29.97
2022-11-13T18:32:39.804Z,27.57
2022-11-13T18:35:42.063Z,25.83
2022-11-13T18:38:44.774Z,30.50
2022-11-13T18:41:48.753Z,27.70
2022-11-13T18:44:51.058Z,28.60
2022-11-13T18:47:53.458Z,25.23
2022-11-13T18:50:57.019Z,25.67
2022-11-13T18:53:59.605Z,22.97
2022-11-13T18:57:03.393Z,21.93
2022-11-13T19:00:06.432Z,25.87
2022-11-13T19:03:08.600Z,24.80
2022-11-13T19:06:13.688Z,24.20
2022-11-13T19:09:18.264Z,22.40
2022-11-13T19:12:22.009Z,21.10
2022-11-13T19:15:24.273Z,23.07
2022-11-13T19:18:26.890Z,23.63
2022-11-13T19:21:30.940Z,22.27
2022-11-13T19:24:33.440Z,22.80
2022-11-13T19:27:37.181Z,22.83
2022-11-13T19:30:45.245Z,21.63
2022-11-13T19:33:47.926Z,22.77
2022-11-13T19:36:51.508Z,21.17
2022-11-13T19:39:53.663Z,22.90
2022-11-13T19:42:57.372Z,20.67
2022-11-13T19:46:04.558Z,22.60
2022-11-13T19:49:07.103Z,18.80
2022-11-13T19:52:09.445Z,20.40
2022-11-13T19:55:11.425Z,19.00
2022-11-13T19:58:15.101Z,19.33
2022-11-13T20:01:20.609Z,18.53
2022-11-13T20:04:23.397Z,21.53
2022-11-13T20:07:25.967Z,18.17
2022-11-13T20:10:28.522Z,18.60
2022-11-13T20:13:34.549Z,22.30
2022-11-13T20:16:36.926Z,18.73
2022-11-13T20:19:39.241Z,19.73
2022-11-13T20:22:41.497Z,20.03
2022-11-13T20:25:43.711Z,20.17
2022-11-13T20:28:47.688Z,22.77
2022-11-13T20:31:52.112Z,22.77
2022-11-13T20:34:54.798Z,23.23
2022-11-13T20:37:58.521Z,19.50
2022-11-13T20:41:04.760Z,18.57
2022-11-13T20:44:09.077Z,17.17
2022-11-13T20:47:11.350Z,17.43
2022-11-13T20:50:13.594Z,18.80
2022-11-13T20:53:15.643Z,20.03
2022-11-13T20:56:19.459Z,19.60
2022-11-13T20:59:23.058Z,25.80
2022-11-13T21:02:25.590Z,27.60
2022-11-13T21:05:28.748Z,32.00
2022-11-13T21:08:31.879Z,32.80
2022-11-13T21:11:34.107Z,30.47
2022-11-13T21:14:37.706Z,34.00
2022-11-13T21:17:39.803Z,34.83
2022-11-13T21:20:41.893Z,35.73
2022-11-13T21:23:44.004Z,33.23
2022-11-13T21:26:45.950Z,37.17
2022-11-13T21:29:49.920Z,36.83
2022-11-13T21:32:52.450Z,38.17
2022-11-13T21:35:55.045Z,42.10
2022-11-13T21:38:57.698Z,42.37
2022-11-13T21:41:59.998Z,39.77
2022-11-13T21:45:03.771Z,38.63
2022-11-13T21:48:06.660Z,35.00
2022-11-13T21:51:09.839Z,42.90
2022-11-13T21:54:12.457Z,39.27
2022-11-13T21:57:14.829Z,37.07
2022-11-13T22:00:19.667Z,40.20
2022-11-13T22:03:21.791Z,45.43
2022-11-13T22:06:25.860Z,48.37
2022-11-13T22:09:28.426Z,44.67
2022-11-13T22:12:30.966Z,48.37
2022-11-13T22:15:34.954Z,41.07
2022-11-13T22:18:37.376Z,38.20
2022-11-13T22:21:39.970Z,39.00
2022-11-13T22:24:42.093Z,35.10
2022-11-13T22:27:44.218Z,33.43
2022-11-13T22:30:48.402Z,36.50
2022-11-13T22:33:54.853Z,32.83
2022-11-13T22:36:57.492Z,31.90
2022-11-13T22:39:59.519Z,31.83
2022-11-13T22:43:02.269Z,31.20
2022-11-13T22:46:08.267Z,30.77
2022-11-13T22:49:13.236Z,26.90
2022-11-13T22:52:15.480Z,30.47
2022-11-13T22:55:17.902Z,30.10
2022-11-13T22:58:20.086Z,28.93
2022-11-13T23:01:24.961Z,29.47
2022-11-13T23:04:27.666Z,30.67
2022-11-13T23:07:30.604Z,32.57
2022-11-13T23:10:33.180Z,29.97
2022-11-13T23:13:35.555Z,31.90
2022-11-13T23:16:39.781Z,32.93
2022-11-13T23:19:41.940Z,31.33
2022-11-13T23:22:44.271Z,27.93
2022-11-13T23:25:46.391Z,32.07
2022-11-13T23:28:48.862Z,32.03
2022-11-13T23:31:52.286Z,27.93
2022-11-13T23:35:01.383Z,29.70
2022-11-13T23:38:03.846Z,34.40
2022-11-13T23:41:07.005Z,31.03
2022-11-13T23:44:09.902Z,35.03
2022-11-13T23:47:13.492Z,36.67
2022-11-13T23:50:15.726Z,40.70
2022-11-13T23:53:18.279Z,33.00
2022-11-13T23:56:20.528Z,33.93
2022-11-13T23:59:23.014Z,33.93
